sensor_id;sensor_type;location;lat;lon;timestamp;P1;durP1;ratioP1;P2;durP2;ratioP2
7933;SDS011;4012;48.896;9.192;2024-03-22T00:01:48;15.17;;;12.67;;
7933;SDS011;4012;48.896;9.192;2024-03-22T00:04:15;17.37;;;13.27;;
7933;SDS011;4012;48.896;9.192;2024-03-22T00:06:41;16.37;;;13.30;;
7933;SDS011;4012;48.896;9.192;2024-03-22T00:09:07;15.43;;;13.27;;
7933;SDS011;4012;48.896;9.192;2024-03-22T00:11:33;17.87;;;14.40;;
7933;SDS011;4012;48.896;9.192;2024-03-22T00:13:59;21.73;;;14.93;;
7933;SDS011;4012;48.896;9.192;2024-03-22T00:16:24;17.80;;;13.67;;
7933;SDS011;4012;48.896;9.192;2024-03-22T00:18:50;16.13;;;13.20;;
7933;SDS011;4012;48.896;9.192;2024-03-22T00:21:16;16.20;;;13.30;;
7933;SDS011;4012;48.896;9.192;2024-03-22T00:23:42;18.30;;;13.53;;
7933;SDS011;4012;48.896;9.192;2024-03-22T00:26:08;15.63;;;13.00;;
7933;SDS011;4012;48.896;9.192;2024-03-22T00:28:34;17.93;;;12.80;;
7933;SDS011;4012;48.896;9.192;2024-03-22T00:30:59;19.00;;;12.90;;
7933;SDS011;4012;48.896;9.192;2024-03-22T00:33:25;16.90;;;12.77;;
7933;SDS011;4012;48.896;9.192;2024-03-22T00:35:50;19.77;;;12.20;;
7933;SDS011;4012;48.896;9.192;2024-03-22T00:38:16;15.90;;;11.93;;
7933;SDS011;4012;48.896;9.192;2024-03-22T00:40:42;14.77;;;11.57;;
7933;SDS011;4012;48.896;9.192;2024-03-22T00:43:07;14.13;;;12.33;;
7933;SDS011;4012;48.896;9.192;2024-03-22T00:45:33;14.27;;;11.63;;
7933;SDS011;4012;48.896;9.192;2024-03-22T00:47:58;17.90;;;13.10;;
7933;SDS011;4012;48.896;9.192;2024-03-22T00:50:24;17.87;;;11.80;;
7933;SDS011;4012;48.896;9.192;2024-03-22T00:52:50;14.17;;;11.80;;
7933;SDS011;4012;48.896;9.192;2024-03-22T00:55:17;15.40;;;11.23;;
7933;SDS011;4012;48.896;9.192;2024-03-22T00:57:43;15.37;;;10.40;;
7933;SDS011;4012;48.896;9.192;2024-03-22T01:00:09;13.93;;;11.53;;
7933;SDS011;4012;48.896;9.192;2024-03-22T01:02:35;19.37;;;11.73;;
7933;SDS011;4012;48.896;9.192;2024-03-22T01:05:01;16.70;;;12.27;;
7933;SDS011;4012;48.896;9.192;2024-03-22T01:07:26;15.60;;;11.83;;
7933;SDS011;4012;48.896;9.192;2024-03-22T01:09:52;14.50;;;12.33;;
7933;SDS011;4012;48.896;9.192;2024-03-22T01:12:17;18.47;;;12.47;;
7933;SDS011;4012;48.896;9.192;2024-03-22T01:14:43;16.00;;;12.03;;
7933;SDS011;4012;48.896;9.192;2024-03-22T01:17:09;17.70;;;12.77;;
7933;SDS011;4012;48.896;9.192;2024-03-22T01:19:34;15.47;;;11.93;;
7933;SDS011;4012;48.896;9.192;2024-03-22T01:22:00;20.57;;;12.73;;
7933;SDS011;4012;48.896;9.192;2024-03-22T01:24:25;14.87;;;13.23;;
7933;SDS011;4012;48.896;9.192;2024-03-22T01:26:51;16.43;;;13.43;;
7933;SDS011;4012;48.896;9.192;2024-03-22T01:29:16;16.03;;;12.73;;
7933;SDS011;4012;48.896;9.192;2024-03-22T01:31:42;16.00;;;12.10;;
7933;SDS011;4012;48.896;9.192;2024-03-22T01:34:08;15.70;;;12.27;;
7933;SDS011;4012;48.896;9.192;2024-03-22T01:36:33;15.87;;;12.43;;
7933;SDS011;4012;48.896;9.192;2024-03-22T01:38:59;15.30;;;12.90;;
7933;SDS011;4012;48.896;9.192;2024-03-22T01:41:24;15.87;;;12.47;;
7933;SDS011;4012;48.896;9.192;2024-03-22T01:43:50;13.87;;;12.03;;
7933;SDS011;4012;48.896;9.192;2024-03-22T01:46:15;16.03;;;13.67;;
7933;SDS011;4012;48.896;9.192;2024-03-22T01:48:41;15.67;;;12.47;;
7933;SDS011;4012;48.896;9.192;2024-03-22T01:51:07;18.37;;;13.23;;
7933;SDS011;4012;48.896;9.192;2024-03-22T01:53:34;20.73;;;13.30;;
7933;SDS011;4012;48.896;9.192;2024-03-22T01:56:01;16.73;;;12.53;;
7933;SDS011;4012;48.896;9.192;2024-03-22T01:58:27;18.83;;;13.47;;
7933;SDS011;4012;48.896;9.192;2024-03-22T02:00:53;17.53;;;13.27;;
7933;SDS011;4012;48.896;9.192;2024-03-22T02:03:19;19.83;;;14.37;;
7933;SDS011;4012;48.896;9.192;2024-03-22T02:05:45;22.97;;;13.50;;
7933;SDS011;4012;48.896;9.192;2024-03-22T02:08:10;16.17;;;12.77;;
7933;SDS011;4012;48.896;9.192;2024-03-22T02:10:36;16.87;;;13.60;;
7933;SDS011;4012;48.896;9.192;2024-03-22T02:13:01;17.20;;;13.00;;
7933;SDS011;4012;48.896;9.192;2024-03-22T02:15:27;17.10;;;13.53;;
7933;SDS011;4012;48.896;9.192;2024-03-22T02:17:53;19.13;;;14.13;;
7933;SDS011;4012;48.896;9.192;2024-03-22T02:20:18;16.57;;;14.53;;
7933;SDS011;4012;48.896;9.192;2024-03-22T02:22:44;19.67;;;13.83;;
7933;SDS011;4012;48.896;9.192;2024-03-22T02:25:09;20.03;;;14.10;;
7933;SDS011;4012;48.896;9.192;2024-03-22T02:27:35;20.93;;;14.13;;
7933;SDS011;4012;48.896;9.192;2024-03-22T02:30:01;18.50;;;14.17;;
7933;SDS011;4012;48.896;9.192;2024-03-22T02:32:27;18.87;;;13.63;;
7933;SDS011;4012;48.896;9.192;2024-03-22T02:34:52;16.23;;;13.23;;
7933;SDS011;4012;48.896;9.192;2024-03-22T02:37:18;17.97;;;14.00;;
7933;SDS011;4012;48.896;9.192;2024-03-22T02:39:43;21.47;;;13.30;;
7933;SDS011;4012;48.896;9.192;2024-03-22T02:42:09;17.03;;;12.63;;
7933;SDS011;4012;48.896;9.192;2024-03-22T02:44:35;19.33;;;13.47;;
7933;SDS011;4012;48.896;9.192;2024-03-22T02:47:03;18.00;;;12.93;;
7933;SDS011;4012;48.896;9.192;2024-03-22T02:49:29;17.47;;;13.23;;
7933;SDS011;4012;48.896;9.192;2024-03-22T02:51:55;17.30;;;12.37;;
7933;SDS011;4012;48.896;9.192;2024-03-22T02:54:20;19.03;;;12.77;;
7933;SDS011;4012;48.896;9.192;2024-03-22T02:56:46;17.90;;;14.07;;
7933;SDS011;4012;48.896;9.192;2024-03-22T02:59:11;20.53;;;14.20;;
7933;SDS011;4012;48.896;9.192;2024-03-22T03:01:37;17.30;;;13.17;;
7933;SDS011;4012;48.896;9.192;2024-03-22T03:04:02;21.87;;;13.90;;
7933;SDS011;4012;48.896;9.192;2024-03-22T03:06:28;20.00;;;14.47;;
7933;SDS011;4012;48.896;9.192;2024-03-22T03:08:54;16.67;;;14.00;;
7933;SDS011;4012;48.896;9.192;2024-03-22T03:11:19;20.53;;;13.47;;
7933;SDS011;4012;48.896;9.192;2024-03-22T03:13:45;22.43;;;13.60;;
7933;SDS011;4012;48.896;9.192;2024-03-22T03:16:10;16.27;;;13.70;;
7933;SDS011;4012;48.896;9.192;2024-03-22T03:18:36;14.90;;;12.50;;
7933;SDS011;4012;48.896;9.192;2024-03-22T03:21:01;15.30;;;13.03;;
7933;SDS011;4012;48.896;9.192;2024-03-22T03:23:27;15.80;;;12.90;;
7933;SDS011;4012;48.896;9.192;2024-03-22T03:25:53;18.87;;;13.20;;
7933;SDS011;4012;48.896;9.192;2024-03-22T03:28:18;16.57;;;13.27;;
7933;SDS011;4012;48.896;9.192;2024-03-22T03:30:44;14.77;;;13.13;;
7933;SDS011;4012;48.896;9.192;2024-03-22T03:33:09;20.93;;;13.57;;
7933;SDS011;4012;48.896;9.192;2024-03-22T03:35:35;18.40;;;13.93;;
7933;SDS011;4012;48.896;9.192;2024-03-22T03:38:01;16.40;;;13.53;;
7933;SDS011;4012;48.896;9.192;2024-03-22T03:40:26;16.50;;;12.70;;
7933;SDS011;4012;48.896;9.192;2024-03-22T03:42:52;14.57;;;12.40;;
7933;SDS011;4012;48.896;9.192;2024-03-22T03:45:18;17.00;;;12.80;;
7933;SDS011;4012;48.896;9.192;2024-03-22T03:47:44;15.80;;;12.90;;
7933;SDS011;4012;48.896;9.192;2024-03-22T03:50:10;16.50;;;12.13;;
7933;SDS011;4012;48.896;9.192;2024-03-22T03:52:35;17.03;;;13.37;;
7933;SDS011;4012;48.896;9.192;2024-03-22T03:55:01;19.10;;;13.40;;
7933;SDS011;4012;48.896;9.192;2024-03-22T03:57:27;15.20;;;12.73;;
7933;SDS011;4012;48.896;9.192;2024-03-22T03:59:52;16.27;;;10.63;;
7933;SDS011;4012;48.896;9.192;2024-03-22T04:02:18;14.67;;;10.20;;
7933;SDS011;4012;48.896;9.192;2024-03-22T04:04:44;12.77;;;9.93;;
7933;SDS011;4012;48.896;9.192;2024-03-22T04:07:09;14.07;;;10.40;;
7933;SDS011;4012;48.896;9.192;2024-03-22T04:09:35;11.90;;;9.73;;
7933;SDS011;4012;48.896;9.192;2024-03-22T04:12:00;13.40;;;9.43;;
7933;SDS011;4012;48.896;9.192;2024-03-22T04:14:26;14.93;;;11.20;;
7933;SDS011;4012;48.896;9.192;2024-03-22T04:16:52;15.57;;;10.37;;
7933;SDS011;4012;48.896;9.192;2024-03-22T04:19:19;13.43;;;10.97;;
7933;SDS011;4012;48.896;9.192;2024-03-22T04:21:46;18.77;;;12.10;;
7933;SDS011;4012;48.896;9.192;2024-03-22T04:24:11;14.10;;;11.80;;
7933;SDS011;4012;48.896;9.192;2024-03-22T04:26:37;18.43;;;13.40;;
7933;SDS011;4012;48.896;9.192;2024-03-22T04:29:02;18.33;;;12.73;;
7933;SDS011;4012;48.896;9.192;2024-03-22T04:31:28;18.90;;;12.97;;
7933;SDS011;4012;48.896;9.192;2024-03-22T04:33:54;13.83;;;12.07;;
7933;SDS011;4012;48.896;9.192;2024-03-22T04:36:19;15.80;;;11.23;;
7933;SDS011;4012;48.896;9.192;2024-03-22T04:38:45;15.17;;;11.07;;
7933;SDS011;4012;48.896;9.192;2024-03-22T04:41:10;12.33;;;9.87;;
7933;SDS011;4012;48.896;9.192;2024-03-22T04:43:36;11.57;;;9.77;;
7933;SDS011;4012;48.896;9.192;2024-03-22T04:46:02;17.37;;;10.60;;
7933;SDS011;4012;48.896;9.192;2024-03-22T04:48:27;13.60;;;9.03;;
7933;SDS011;4012;48.896;9.192;2024-03-22T04:50:53;12.27;;;9.03;;
7933;SDS011;4012;48.896;9.192;2024-03-22T04:53:22;11.80;;;8.73;;
7933;SDS011;4012;48.896;9.192;2024-03-22T04:55:47;10.67;;;8.47;;
7933;SDS011;4012;48.896;9.192;2024-03-22T04:58:14;10.90;;;9.13;;
7933;SDS011;4012;48.896;9.192;2024-03-22T05:00:41;11.87;;;9.33;;
7933;SDS011;4012;48.896;9.192;2024-03-22T05:03:07;11.63;;;9.77;;
7933;SDS011;4012;48.896;9.192;2024-03-22T05:05:33;16.30;;;9.97;;
7933;SDS011;4012;48.896;9.192;2024-03-22T05:07:59;11.80;;;9.50;;
7933;SDS011;4012;48.896;9.192;2024-03-22T05:10:26;14.87;;;10.47;;
7933;SDS011;4012;48.896;9.192;2024-03-22T05:12:53;14.07;;;10.77;;
7933;SDS011;4012;48.896;9.192;2024-03-22T05:15:19;15.13;;;10.90;;
7933;SDS011;4012;48.896;9.192;2024-03-22T05:17:45;16.93;;;11.63;;
7933;SDS011;4012;48.896;9.192;2024-03-22T05:20:11;14.83;;;11.20;;
7933;SDS011;4012;48.896;9.192;2024-03-22T05:22:39;14.10;;;11.17;;
7933;SDS011;4012;48.896;9.192;2024-03-22T05:25:05;15.67;;;11.47;;
7933;SDS011;4012;48.896;9.192;2024-03-22T05:27:31;14.73;;;10.73;;
7933;SDS011;4012;48.896;9.192;2024-03-22T05:29:57;16.57;;;11.13;;
7933;SDS011;4012;48.896;9.192;2024-03-22T05:32:24;12.27;;;10.70;;
7933;SDS011;4012;48.896;9.192;2024-03-22T05:34:50;15.57;;;10.90;;
7933;SDS011;4012;48.896;9.192;2024-03-22T05:37:16;15.47;;;10.47;;
7933;SDS011;4012;48.896;9.192;2024-03-22T05:39:41;13.80;;;10.70;;
7933;SDS011;4012;48.896;9.192;2024-03-22T05:42:07;12.30;;;10.93;;
7933;SDS011;4012;48.896;9.192;2024-03-22T05:44:33;16.07;;;11.23;;
7933;SDS011;4012;48.896;9.192;2024-03-22T05:46:58;13.03;;;11.10;;
7933;SDS011;4012;48.896;9.192;2024-03-22T05:49:24;16.93;;;11.60;;
7933;SDS011;4012;48.896;9.192;2024-03-22T05:51:50;15.17;;;11.30;;
7933;SDS011;4012;48.896;9.192;2024-03-22T05:54:15;12.37;;;11.00;;
7933;SDS011;4012;48.896;9.192;2024-03-22T05:56:41;12.53;;;10.10;;
7933;SDS011;4012;48.896;9.192;2024-03-22T05:59:06;17.40;;;10.03;;
7933;SDS011;4012;48.896;9.192;2024-03-22T06:01:32;12.93;;;10.13;;
7933;SDS011;4012;48.896;9.192;2024-03-22T06:03:58;13.80;;;10.93;;
7933;SDS011;4012;48.896;9.192;2024-03-22T06:06:23;19.00;;;10.73;;
7933;SDS011;4012;48.896;9.192;2024-03-22T06:08:52;14.87;;;10.93;;
7933;SDS011;4012;48.896;9.192;2024-03-22T06:11:19;13.13;;;10.07;;
7933;SDS011;4012;48.896;9.192;2024-03-22T06:13:45;15.73;;;11.03;;
7933;SDS011;4012;48.896;9.192;2024-03-22T06:16:11;14.87;;;10.80;;
7933;SDS011;4012;48.896;9.192;2024-03-22T06:18:36;11.97;;;9.73;;
7933;SDS011;4012;48.896;9.192;2024-03-22T06:21:02;14.57;;;9.57;;
7933;SDS011;4012;48.896;9.192;2024-03-22T06:23:28;16.97;;;9.90;;
7933;SDS011;4012;48.896;9.192;2024-03-22T06:25:54;12.73;;;9.83;;
7933;SDS011;4012;48.896;9.192;2024-03-22T06:28:20;21.27;;;10.50;;
7933;SDS011;4012;48.896;9.192;2024-03-22T06:30:46;16.93;;;9.67;;
7933;SDS011;4012;48.896;9.192;2024-03-22T06:33:11;13.80;;;10.37;;
7933;SDS011;4012;48.896;9.192;2024-03-22T06:35:37;12.03;;;10.03;;
7933;SDS011;4012;48.896;9.192;2024-03-22T06:38:03;15.23;;;10.40;;
7933;SDS011;4012;48.896;9.192;2024-03-22T06:40:29;13.10;;;8.87;;
7933;SDS011;4012;48.896;9.192;2024-03-22T06:42:58;17.40;;;10.40;;
7933;SDS011;4012;48.896;9.192;2024-03-22T06:45:23;13.10;;;10.17;;
7933;SDS011;4012;48.896;9.192;2024-03-22T06:47:49;13.13;;;10.23;;
7933;SDS011;4012;48.896;9.192;2024-03-22T06:50:15;13.93;;;10.30;;
7933;SDS011;4012;48.896;9.192;2024-03-22T06:52:42;15.10;;;9.77;;
7933;SDS011;4012;48.896;9.192;2024-03-22T06:55:08;14.87;;;10.00;;
7933;SDS011;4012;48.896;9.192;2024-03-22T06:57:34;12.60;;;10.30;;
7933;SDS011;4012;48.896;9.192;2024-03-22T06:59:59;14.50;;;10.37;;
7933;SDS011;4012;48.896;9.192;2024-03-22T07:02:25;19.73;;;11.13;;
7933;SDS011;4012;48.896;9.192;2024-03-22T07:04:51;12.23;;;9.43;;
7933;SDS011;4012;48.896;9.192;2024-03-22T07:07:17;15.60;;;9.70;;
7933;SDS011;4012;48.896;9.192;2024-03-22T07:09:43;14.23;;;9.80;;
7933;SDS011;4012;48.896;9.192;2024-03-22T07:12:09;13.17;;;9.80;;
7933;SDS011;4012;48.896;9.192;2024-03-22T07:14:34;14.50;;;10.27;;
7933;SDS011;4012;48.896;9.192;2024-03-22T07:17:00;11.93;;;10.33;;
7933;SDS011;4012;48.896;9.192;2024-03-22T07:19:26;16.13;;;10.33;;
7933;SDS011;4012;48.896;9.192;2024-03-22T07:21:53;16.40;;;10.63;;
7933;SDS011;4012;48.896;9.192;2024-03-22T07:24:19;12.97;;;10.10;;
7933;SDS011;4012;48.896;9.192;2024-03-22T07:26:45;12.20;;;10.33;;
7933;SDS011;4012;48.896;9.192;2024-03-22T07:29:11;11.07;;;9.53;;
7933;SDS011;4012;48.896;9.192;2024-03-22T07:31:37;14.53;;;9.30;;
7933;SDS011;4012;48.896;9.192;2024-03-22T07:34:02;15.07;;;9.60;;
7933;SDS011;4012;48.896;9.192;2024-03-22T07:36:30;10.47;;;8.50;;
7933;SDS011;4012;48.896;9.192;2024-03-22T07:38:55;11.03;;;8.97;;
7933;SDS011;4012;48.896;9.192;2024-03-22T07:41:23;10.63;;;8.87;;
7933;SDS011;4012;48.896;9.192;2024-03-22T07:43:48;9.17;;;8.17;;
7933;SDS011;4012;48.896;9.192;2024-03-22T07:46:14;9.70;;;7.73;;
7933;SDS011;4012;48.896;9.192;2024-03-22T07:48:40;12.73;;;8.50;;
7933;SDS011;4012;48.896;9.192;2024-03-22T07:51:05;17.23;;;8.47;;
7933;SDS011;4012;48.896;9.192;2024-03-22T07:53:31;11.03;;;7.90;;
7933;SDS011;4012;48.896;9.192;2024-03-22T07:55:56;8.13;;;7.20;;
7933;SDS011;4012;48.896;9.192;2024-03-22T07:58:22;7.93;;;7.13;;
7933;SDS011;4012;48.896;9.192;2024-03-22T08:00:47;8.33;;;6.77;;
7933;SDS011;4012;48.896;9.192;2024-03-22T08:03:14;8.10;;;7.00;;
7933;SDS011;4012;48.896;9.192;2024-03-22T08:05:41;11.10;;;6.97;;
7933;SDS011;4012;48.896;9.192;2024-03-22T08:08:07;9.07;;;7.00;;
7933;SDS011;4012;48.896;9.192;2024-03-22T08:10:32;10.37;;;7.20;;
7933;SDS011;4012;48.896;9.192;2024-03-22T08:12:58;15.50;;;8.07;;
7933;SDS011;4012;48.896;9.192;2024-03-22T08:15:25;10.43;;;7.30;;
7933;SDS011;4012;48.896;9.192;2024-03-22T08:17:51;9.30;;;7.30;;
7933;SDS011;4012;48.896;9.192;2024-03-22T08:20:17;11.43;;;7.20;;
7933;SDS011;4012;48.896;9.192;2024-03-22T08:22:42;10.40;;;7.33;;
7933;SDS011;4012;48.896;9.192;2024-03-22T08:25:08;11.47;;;7.20;;
7933;SDS011;4012;48.896;9.192;2024-03-22T08:27:34;16.17;;;7.30;;
7933;SDS011;4012;48.896;9.192;2024-03-22T08:29:59;9.97;;;7.53;;
7933;SDS011;4012;48.896;9.192;2024-03-22T08:32:26;8.70;;;6.97;;
7933;SDS011;4012;48.896;9.192;2024-03-22T08:34:52;7.90;;;7.17;;
7933;SDS011;4012;48.896;9.192;2024-03-22T08:37:17;11.37;;;7.57;;
7933;SDS011;4012;48.896;9.192;2024-03-22T08:39:43;7.97;;;6.73;;
7933;SDS011;4012;48.896;9.192;2024-03-22T08:42:08;9.00;;;7.47;;
7933;SDS011;4012;48.896;9.192;2024-03-22T08:44:35;8.53;;;7.30;;
7933;SDS011;4012;48.896;9.192;2024-03-22T08:47:01;10.00;;;6.87;;
7933;SDS011;4012;48.896;9.192;2024-03-22T08:49:26;9.40;;;8.40;;
7933;SDS011;4012;48.896;9.192;2024-03-22T08:51:52;9.77;;;8.23;;
7933;SDS011;4012;48.896;9.192;2024-03-22T08:54:17;8.83;;;7.03;;
7933;SDS011;4012;48.896;9.192;2024-03-22T08:56:43;10.10;;;7.00;;
7933;SDS011;4012;48.896;9.192;2024-03-22T08:59:09;10.13;;;6.80;;
7933;SDS011;4012;48.896;9.192;2024-03-22T09:01:35;11.70;;;7.13;;
7933;SDS011;4012;48.896;9.192;2024-03-22T09:04:01;14.37;;;7.13;;
7933;SDS011;4012;48.896;9.192;2024-03-22T09:06:27;8.83;;;7.27;;
7933;SDS011;4012;48.896;9.192;2024-03-22T09:08:53;15.67;;;7.77;;
7933;SDS011;4012;48.896;9.192;2024-03-22T09:11:22;26.73;;;8.57;;
7933;SDS011;4012;48.896;9.192;2024-03-22T09:13:51;9.33;;;6.10;;
7933;SDS011;4012;48.896;9.192;2024-03-22T09:16:17;8.97;;;6.40;;
7933;SDS011;4012;48.896;9.192;2024-03-22T09:18:43;7.70;;;5.77;;
7933;SDS011;4012;48.896;9.192;2024-03-22T09:21:09;11.20;;;7.10;;
7933;SDS011;4012;48.896;9.192;2024-03-22T09:23:35;8.93;;;6.30;;
7933;SDS011;4012;48.896;9.192;2024-03-22T09:26:01;12.87;;;6.90;;
7933;SDS011;4012;48.896;9.192;2024-03-22T09:28:27;9.47;;;5.77;;
7933;SDS011;4012;48.896;9.192;2024-03-22T09:30:52;7.47;;;5.60;;
7933;SDS011;4012;48.896;9.192;2024-03-22T09:33:18;13.03;;;5.93;;
7933;SDS011;4012;48.896;9.192;2024-03-22T09:35:44;11.33;;;6.50;;
7933;SDS011;4012;48.896;9.192;2024-03-22T09:38:09;8.40;;;5.87;;
7933;SDS011;4012;48.896;9.192;2024-03-22T09:40:37;9.70;;;5.93;;
7933;SDS011;4012;48.896;9.192;2024-03-22T09:43:04;183.23;;;22.97;;
7933;SDS011;4012;48.896;9.192;2024-03-22T09:45:32;11.90;;;6.00;;
7933;SDS011;4012;48.896;9.192;2024-03-22T09:47:58;9.60;;;5.80;;
7933;SDS011;4012;48.896;9.192;2024-03-22T09:50:25;11.33;;;9.00;;
7933;SDS011;4012;48.896;9.192;2024-03-22T09:52:54;6.93;;;6.13;;
7933;SDS011;4012;48.896;9.192;2024-03-22T09:55:22;10.33;;;6.67;;
7933;SDS011;4012;48.896;9.192;2024-03-22T09:57:48;11.57;;;7.63;;
7933;SDS011;4012;48.896;9.192;2024-03-22T10:00:16;13.23;;;6.57;;
7933;SDS011;4012;48.896;9.192;2024-03-22T10:02:49;12.03;;;5.73;;
7933;SDS011;4012;48.896;9.192;2024-03-22T10:05:15;7.67;;;4.87;;
7933;SDS011;4012;48.896;9.192;2024-03-22T10:07:42;8.93;;;6.17;;
7933;SDS011;4012;48.896;9.192;2024-03-22T10:10:08;10.67;;;5.53;;
7933;SDS011;4012;48.896;9.192;2024-03-22T10:12:35;12.47;;;5.83;;
7933;SDS011;4012;48.896;9.192;2024-03-22T10:15:01;12.33;;;6.10;;
7933;SDS011;4012;48.896;9.192;2024-03-22T10:17:27;7.50;;;5.57;;
7933;SDS011;4012;48.896;9.192;2024-03-22T10:19:54;142.37;;;17.10;;
7933;SDS011;4012;48.896;9.192;2024-03-22T10:22:19;25.47;;;6.60;;
7933;SDS011;4012;48.896;9.192;2024-03-22T10:24:45;30.23;;;7.50;;
7933;SDS011;4012;48.896;9.192;2024-03-22T10:27:11;8.23;;;5.13;;
7933;SDS011;4012;48.896;9.192;2024-03-22T10:29:37;8.10;;;5.13;;
7933;SDS011;4012;48.896;9.192;2024-03-22T10:32:02;6.40;;;4.50;;
7933;SDS011;4012;48.896;9.192;2024-03-22T10:34:28;5.93;;;5.23;;
7933;SDS011;4012;48.896;9.192;2024-03-22T10:36:57;7.50;;;5.20;;
7933;SDS011;4012;48.896;9.192;2024-03-22T10:39:28;7.17;;;4.33;;
7933;SDS011;4012;48.896;9.192;2024-03-22T10:41:56;7.40;;;4.10;;
7933;SDS011;4012;48.896;9.192;2024-03-22T10:44:21;8.60;;;4.10;;
7933;SDS011;4012;48.896;9.192;2024-03-22T10:46:48;6.90;;;4.90;;
7933;SDS011;4012;48.896;9.192;2024-03-22T10:49:19;6.37;;;4.10;;
7933;SDS011;4012;48.896;9.192;2024-03-22T10:51:49;5.00;;;3.97;;
7933;SDS011;4012;48.896;9.192;2024-03-22T10:54:23;8.43;;;4.63;;
7933;SDS011;4012;48.896;9.192;2024-03-22T10:56:52;6.60;;;4.60;;
7933;SDS011;4012;48.896;9.192;2024-03-22T10:59:19;5.93;;;4.60;;
7933;SDS011;4012;48.896;9.192;2024-03-22T11:01:46;6.83;;;4.37;;
7933;SDS011;4012;48.896;9.192;2024-03-22T11:04:15;8.43;;;4.43;;
7933;SDS011;4012;48.896;9.192;2024-03-22T11:06:46;6.57;;;4.63;;
7933;SDS011;4012;48.896;9.192;2024-03-22T11:09:18;8.07;;;4.20;;
7933;SDS011;4012;48.896;9.192;2024-03-22T11:11:46;7.63;;;4.37;;
7933;SDS011;4012;48.896;9.192;2024-03-22T11:14:12;10.83;;;4.70;;
7933;SDS011;4012;48.896;9.192;2024-03-22T11:16:38;7.00;;;4.53;;
7933;SDS011;4012;48.896;9.192;2024-03-22T11:19:04;7.97;;;4.67;;
7933;SDS011;4012;48.896;9.192;2024-03-22T11:21:32;8.70;;;4.97;;
7933;SDS011;4012;48.896;9.192;2024-03-22T11:24:00;7.93;;;5.13;;
7933;SDS011;4012;48.896;9.192;2024-03-22T11:26:26;9.30;;;5.33;;
7933;SDS011;4012;48.896;9.192;2024-03-22T11:28:52;7.43;;;4.40;;
7933;SDS011;4012;48.896;9.192;2024-03-22T11:31:17;7.03;;;4.40;;
7933;SDS011;4012;48.896;9.192;2024-03-22T11:33:46;5.07;;;3.77;;
7933;SDS011;4012;48.896;9.192;2024-03-22T11:36:12;8.33;;;5.90;;
7933;SDS011;4012;48.896;9.192;2024-03-22T11:38:39;6.33;;;4.23;;
7933;SDS011;4012;48.896;9.192;2024-03-22T11:41:04;8.07;;;4.30;;
7933;SDS011;4012;48.896;9.192;2024-03-22T11:43:31;7.73;;;4.20;;
7933;SDS011;4012;48.896;9.192;2024-03-22T11:45:57;6.93;;;4.13;;
7933;SDS011;4012;48.896;9.192;2024-03-22T11:48:23;5.77;;;4.07;;
7933;SDS011;4012;48.896;9.192;2024-03-22T11:50:49;9.33;;;3.80;;
7933;SDS011;4012;48.896;9.192;2024-03-22T11:53:18;8.90;;;4.20;;
7933;SDS011;4012;48.896;9.192;2024-03-22T11:55:44;5.30;;;4.17;;
7933;SDS011;4012;48.896;9.192;2024-03-22T11:58:10;5.47;;;3.90;;
7933;SDS011;4012;48.896;9.192;2024-03-22T12:00:35;6.23;;;4.13;;
7933;SDS011;4012;48.896;9.192;2024-03-22T12:03:03;4.33;;;3.73;;
7933;SDS011;4012;48.896;9.192;2024-03-22T12:05:32;7.60;;;5.20;;
7933;SDS011;4012;48.896;9.192;2024-03-22T12:07:58;5.07;;;3.73;;
7933;SDS011;4012;48.896;9.192;2024-03-22T12:10:23;5.93;;;4.50;;
7933;SDS011;4012;48.896;9.192;2024-03-22T12:12:49;5.80;;;4.40;;
7933;SDS011;4012;48.896;9.192;2024-03-22T12:15:15;9.17;;;4.37;;
7933;SDS011;4012;48.896;9.192;2024-03-22T12:17:40;6.03;;;4.40;;
7933;SDS011;4012;48.896;9.192;2024-03-22T12:20:08;6.57;;;4.20;;
7933;SDS011;4012;48.896;9.192;2024-03-22T12:22:34;5.90;;;4.20;;
7933;SDS011;4012;48.896;9.192;2024-03-22T12:25:00;8.80;;;4.80;;
7933;SDS011;4012;48.896;9.192;2024-03-22T12:27:26;7.20;;;4.23;;
7933;SDS011;4012;48.896;9.192;2024-03-22T12:29:52;7.27;;;3.67;;
7933;SDS011;4012;48.896;9.192;2024-03-22T12:32:18;6.40;;;3.77;;
7933;SDS011;4012;48.896;9.192;2024-03-22T12:34:44;7.53;;;4.07;;
7933;SDS011;4012;48.896;9.192;2024-03-22T12:37:09;6.17;;;3.73;;
7933;SDS011;4012;48.896;9.192;2024-03-22T12:39:35;7.53;;;4.10;;
7933;SDS011;4012;48.896;9.192;2024-03-22T12:42:02;6.37;;;3.97;;
7933;SDS011;4012;48.896;9.192;2024-03-22T12:44:28;6.00;;;4.53;;
7933;SDS011;4012;48.896;9.192;2024-03-22T12:46:54;6.83;;;3.87;;
7933;SDS011;4012;48.896;9.192;2024-03-22T12:49:21;5.87;;;3.43;;
7933;SDS011;4012;48.896;9.192;2024-03-22T12:51:46;6.13;;;3.80;;
7933;SDS011;4012;48.896;9.192;2024-03-22T12:54:13;6.60;;;4.13;;
7933;SDS011;4012;48.896;9.192;2024-03-22T12:56:40;30.87;;;7.17;;
7933;SDS011;4012;48.896;9.192;2024-03-22T12:59:05;39.53;;;8.03;;
7933;SDS011;4012;48.896;9.192;2024-03-22T13:01:32;16.17;;;5.03;;
7933;SDS011;4012;48.896;9.192;2024-03-22T13:03:59;8.17;;;4.00;;
7933;SDS011;4012;48.896;9.192;2024-03-22T13:06:24;6.60;;;3.20;;
7933;SDS011;4012;48.896;9.192;2024-03-22T13:08:50;35.37;;;6.40;;
7933;SDS011;4012;48.896;9.192;2024-03-22T13:11:16;25.83;;;6.00;;
7933;SDS011;4012;48.896;9.192;2024-03-22T13:13:42;53.93;;;9.97;;
7933;SDS011;4012;48.896;9.192;2024-03-22T13:16:08;18.30;;;5.17;;
7933;SDS011;4012;48.896;9.192;2024-03-22T13:18:36;21.10;;;5.30;;
7933;SDS011;4012;48.896;9.192;2024-03-22T13:21:02;23.30;;;5.03;;
7933;SDS011;4012;48.896;9.192;2024-03-22T13:23:30;29.83;;;6.50;;
7933;SDS011;4012;48.896;9.192;2024-03-22T13:25:55;24.53;;;6.97;;
7933;SDS011;4012;48.896;9.192;2024-03-22T13:28:23;21.90;;;5.00;;
7933;SDS011;4012;48.896;9.192;2024-03-22T13:30:58;26.83;;;6.60;;
7933;SDS011;4012;48.896;9.192;2024-03-22T13:33:28;70.47;;;9.90;;
7933;SDS011;4012;48.896;9.192;2024-03-22T13:35:58;12.63;;;4.63;;
7933;SDS011;4012;48.896;9.192;2024-03-22T13:38:23;23.10;;;4.77;;
7933;SDS011;4012;48.896;9.192;2024-03-22T13:40:55;10.20;;;3.60;;
7933;SDS011;4012;48.896;9.192;2024-03-22T13:43:22;5.33;;;2.73;;
7933;SDS011;4012;48.896;9.192;2024-03-22T13:45:51;5.97;;;3.27;;
7933;SDS011;4012;48.896;9.192;2024-03-22T13:48:23;5.70;;;3.50;;
7933;SDS011;4012;48.896;9.192;2024-03-22T13:50:53;7.03;;;3.37;;
7933;SDS011;4012;48.896;9.192;2024-03-22T13:53:19;7.07;;;3.67;;
7933;SDS011;4012;48.896;9.192;2024-03-22T13:55:49;7.67;;;3.20;;
7933;SDS011;4012;48.896;9.192;2024-03-22T13:58:15;8.80;;;4.10;;
7933;SDS011;4012;48.896;9.192;2024-03-22T14:00:40;11.43;;;3.57;;
7933;SDS011;4012;48.896;9.192;2024-03-22T14:03:06;10.73;;;3.37;;
7933;SDS011;4012;48.896;9.192;2024-03-22T14:05:32;41.73;;;7.00;;
7933;SDS011;4012;48.896;9.192;2024-03-22T14:07:58;17.30;;;5.20;;
7933;SDS011;4012;48.896;9.192;2024-03-22T14:10:24;10.93;;;4.33;;
7933;SDS011;4012;48.896;9.192;2024-03-22T14:12:52;27.80;;;6.53;;
7933;SDS011;4012;48.896;9.192;2024-03-22T14:15:18;20.57;;;4.20;;
7933;SDS011;4012;48.896;9.192;2024-03-22T14:17:44;5.87;;;2.70;;
7933;SDS011;4012;48.896;9.192;2024-03-22T14:20:10;4.00;;;2.10;;
7933;SDS011;4012;48.896;9.192;2024-03-22T14:22:39;5.03;;;2.20;;
7933;SDS011;4012;48.896;9.192;2024-03-22T14:25:05;4.60;;;2.00;;
7933;SDS011;4012;48.896;9.192;2024-03-22T14:27:32;5.47;;;2.20;;
7933;SDS011;4012;48.896;9.192;2024-03-22T14:29:57;2.93;;;1.77;;
7933;SDS011;4012;48.896;9.192;2024-03-22T14:32:24;3.63;;;2.00;;
7933;SDS011;4012;48.896;9.192;2024-03-22T14:34:50;2.70;;;1.90;;
7933;SDS011;4012;48.896;9.192;2024-03-22T14:37:15;7.37;;;2.10;;
7933;SDS011;4012;48.896;9.192;2024-03-22T14:39:41;10.13;;;6.87;;
7933;SDS011;4012;48.896;9.192;2024-03-22T14:42:08;3.37;;;2.03;;
7933;SDS011;4012;48.896;9.192;2024-03-22T14:44:33;37.90;;;7.60;;
7933;SDS011;4012;48.896;9.192;2024-03-22T14:46:59;29.97;;;5.63;;
7933;SDS011;4012;48.896;9.192;2024-03-22T14:49:25;19.33;;;4.03;;
7933;SDS011;4012;48.896;9.192;2024-03-22T14:51:51;2.63;;;1.70;;
7933;SDS011;4012;48.896;9.192;2024-03-22T14:54:17;16.93;;;3.20;;